Middlebrook, Virginia
Current Conditions -  °F | °C
As of 8:15 PM on Wednesday 22 Oct 2014 (Local Time) from KW13 Reporting Station
Clear Clear  
Wind Chill: 44°   Ceiling: Unl
Heat Index: 49°   Visibility: 10mi
Dew Point: 40°   Wind: 14mph
Humidity: 72%   Direction: 320°NW
Pressure: 30.02"   Gusts: NA
Location:  38.05°N, 79.21°W
Report Text: KW13 230015Z AUTO 32012KT 10SM CLR 10/05 A3002 RMK AO1 T00950047
Loading
Personal Weather Stations






























Interactive Weather Map
Tropical Storm Tracking
New forecast layout! Learn more

10-Day Weather Forecast

Advertisements
Track Severe Weather on mobile